createdAt,value
2023-03-27T00:01:22.833Z,98778.34
2023-03-27T00:03:50.696Z,98777.94
2023-03-27T00:06:19.477Z,98790.75
2023-03-27T00:08:50.999Z,98792.25
2023-03-27T00:11:25.289Z,98805.59
2023-03-27T00:13:54.400Z,98812.16
2023-03-27T00:16:27.089Z,98818.09
2023-03-27T00:18:54.549Z,98830.59
2023-03-27T00:21:22.361Z,98841.19
2023-03-27T00:23:49.103Z,98834.63
2023-03-27T00:26:16.590Z,98838.84
2023-03-27T00:28:43.149Z,98848.63
2023-03-27T00:31:11.807Z,98847.09
2023-03-27T00:33:38.772Z,98847.94
2023-03-27T00:36:06.538Z,98852.84
2023-03-27T00:38:33.904Z,98867.84
2023-03-27T00:41:00.943Z,98871.66
2023-03-27T00:43:35.954Z,98865.72
2023-03-27T00:46:08.772Z,98875.56
2023-03-27T00:48:37.508Z,98869.94
2023-03-27T00:51:05.694Z,98884.53
2023-03-27T00:53:33.267Z,98871.41
2023-03-27T00:56:05.028Z,98877.72
2023-03-27T00:58:42.293Z,98875.97
2023-03-27T01:01:10.102Z,98892.91
2023-03-27T01:03:36.931Z,98888.38
2023-03-27T01:06:04.059Z,98902.16
2023-03-27T01:08:33.698Z,98908.38
2023-03-27T01:11:32.633Z,98906.50
2023-03-27T01:14:05.138Z,98908.59
2023-03-27T01:17:17.784Z,98906.34
2023-03-27T01:20:14.059Z,98912.97
2023-03-27T01:23:05.295Z,98913.16
2023-03-27T01:25:50.567Z,98928.66
2023-03-27T01:28:32.459Z,98939.16
2023-03-27T01:31:03.590Z,98935.97
2023-03-27T01:33:49.388Z,98942.31
2023-03-27T01:36:24.518Z,98948.47
2023-03-27T01:39:21.464Z,98949.28
2023-03-27T01:42:18.647Z,98947.31
2023-03-27T01:45:04.605Z,98960.81
2023-03-27T01:47:49.673Z,98959.50
2023-03-27T01:50:38.060Z,98958.25
2023-03-27T01:53:16.600Z,98968.00
2023-03-27T01:55:50.334Z,98969.69
2023-03-27T01:58:23.052Z,98975.09
2023-03-27T02:00:55.446Z,98981.13
2023-03-27T02:03:35.873Z,98984.44
2023-03-27T02:06:17.703Z,98992.25
2023-03-27T02:08:58.789Z,98993.00
2023-03-27T02:11:29.825Z,99000.47
2023-03-27T02:14:28.622Z,99004.81
2023-03-27T02:17:00.253Z,99009.72
2023-03-27T02:19:35.839Z,99016.16
2023-03-27T02:22:03.442Z,99018.03
2023-03-27T02:24:30.661Z,99020.69
2023-03-27T02:27:09.068Z,99020.13
2023-03-27T02:29:48.221Z,99019.91
2023-03-27T02:32:44.033Z,99026.50
2023-03-27T02:35:10.369Z,99038.41
2023-03-27T02:37:45.542Z,99041.63
2023-03-27T02:40:31.788Z,99045.47
2023-03-27T02:43:13.106Z,99054.91
2023-03-27T02:46:16.928Z,99061.13
2023-03-27T02:48:46.925Z,99064.47
2023-03-27T02:51:32.422Z,99066.72
2023-03-27T02:54:06.477Z,99070.94
2023-03-27T02:56:40.868Z,99078.78
2023-03-27T02:59:13.086Z,99077.09
2023-03-27T03:01:41.065Z,99085.03
2023-03-27T03:04:18.067Z,99085.47
2023-03-27T03:06:44.684Z,99099.09
2023-03-27T03:09:11.304Z,99105.03
2023-03-27T03:11:46.450Z,99103.63
2023-03-27T03:14:13.851Z,99098.34
2023-03-27T03:20:21.864Z,99116.25
2023-03-27T03:22:49.249Z,99118.13
2023-03-27T03:25:16.124Z,99126.06
2023-03-27T03:27:44.095Z,99142.34
2023-03-27T03:30:12.112Z,99141.22
2023-03-27T03:32:44.125Z,99141.75
2023-03-27T03:35:11.661Z,99147.53
2023-03-27T03:37:39.001Z,99160.59
2023-03-27T03:40:12.034Z,99157.94
2023-03-27T03:42:46.879Z,99168.13
2023-03-27T03:45:13.852Z,99171.44
2023-03-27T03:47:40.846Z,99162.63
2023-03-27T03:50:07.845Z,99175.44
2023-03-27T03:52:34.808Z,99183.16
2023-03-27T03:55:01.566Z,99180.97
2023-03-27T03:57:28.069Z,99191.81
2023-03-27T03:59:54.979Z,99202.09
2023-03-27T04:02:31.046Z,99200.91
2023-03-27T04:04:59.127Z,99205.41
2023-03-27T04:07:31.954Z,99205.06
2023-03-27T04:10:01.184Z,99219.31
2023-03-27T04:12:28.181Z,99224.81
2023-03-27T04:14:55.317Z,99222.53
2023-03-27T04:17:23.484Z,99233.63
2023-03-27T04:19:49.983Z,99238.78
2023-03-27T04:22:17.213Z,99233.25
2023-03-27T04:24:50.401Z,99238.91
2023-03-27T04:27:17.829Z,99248.59
2023-03-27T04:29:47.525Z,99248.19
2023-03-27T04:32:18.947Z,99253.03
2023-03-27T04:34:46.748Z,99256.94
2023-03-27T04:37:14.450Z,99260.34
2023-03-27T04:39:43.838Z,99266.22
2023-03-27T04:42:10.613Z,99264.78
2023-03-27T04:44:37.678Z,99276.19
2023-03-27T04:49:40.295Z,99284.88
2023-03-27T04:52:07.337Z,99279.66
2023-03-27T04:54:34.608Z,99283.34
2023-03-27T04:57:02.454Z,99285.03
2023-03-27T04:59:32.193Z,99291.88
2023-03-27T05:02:01.929Z,99295.97
2023-03-27T05:04:29.458Z,99299.03
2023-03-27T05:06:57.694Z,99300.25
2023-03-27T05:09:24.299Z,99318.56
2023-03-27T05:11:51.824Z,99312.38
2023-03-27T05:14:20.284Z,99318.72
2023-03-27T05:16:48.824Z,99316.88
2023-03-27T05:19:15.369Z,99320.16
2023-03-27T05:21:42.085Z,99322.28
2023-03-27T05:24:09.500Z,99336.19
2023-03-27T05:26:37.365Z,99335.41
2023-03-27T05:29:05.870Z,99338.09
2023-03-27T05:31:35.787Z,99342.16
2023-03-27T05:34:02.699Z,99348.28
2023-03-27T05:36:30.138Z,99350.84
2023-03-27T05:38:57.871Z,99355.28
2023-03-27T05:41:25.529Z,99357.84
2023-03-27T05:43:52.071Z,99359.63
2023-03-27T05:46:20.985Z,99365.88
2023-03-27T05:48:48.298Z,99363.59
2023-03-27T05:51:15.909Z,99363.38
2023-03-27T05:53:42.873Z,99370.03
2023-03-27T05:56:09.643Z,99372.00
2023-03-27T05:58:36.400Z,99376.78
2023-03-27T06:01:04.306Z,99380.47
2023-03-27T06:03:31.399Z,99381.91
2023-03-27T06:06:01.108Z,99376.22
2023-03-27T06:08:29.834Z,99381.56
2023-03-27T06:10:57.686Z,99396.91
2023-03-27T06:13:24.419Z,99394.63
2023-03-27T06:15:53.880Z,99399.06
2023-03-27T06:18:20.642Z,99400.84
2023-03-27T06:20:47.124Z,99407.59
2023-03-27T06:23:13.631Z,99415.09
2023-03-27T06:25:40.149Z,99423.28
2023-03-27T06:28:09.580Z,99429.25
2023-03-27T06:30:39.933Z,99433.88
2023-03-27T06:33:07.861Z,99438.16
2023-03-27T06:35:35.193Z,99431.56
2023-03-27T06:38:04.622Z,99441.19
2023-03-27T06:40:32.502Z,99435.63
2023-03-27T06:43:01.185Z,99444.25
2023-03-27T06:45:31.289Z,99438.78
2023-03-27T06:48:15.044Z,99439.31
2023-03-27T06:50:47.816Z,99440.50
2023-03-27T06:53:26.697Z,99433.66
2023-03-27T06:55:55.108Z,99443.66
2023-03-27T06:58:22.161Z,99449.63
2023-03-27T07:00:50.222Z,99446.13
2023-03-27T07:03:18.589Z,99447.72
2023-03-27T07:05:45.350Z,99452.94
2023-03-27T07:08:23.239Z,99462.56
2023-03-27T07:11:03.849Z,99468.84
2023-03-27T07:13:37.585Z,99461.34
2023-03-27T07:16:04.545Z,99474.25
2023-03-27T07:18:31.716Z,99472.94
2023-03-27T07:20:58.377Z,99484.09
2023-03-27T07:23:25.292Z,99483.59
2023-03-27T07:25:52.145Z,99488.41
2023-03-27T07:28:19.883Z,99495.03
2023-03-27T07:30:46.653Z,99493.56
2023-03-27T07:33:13.740Z,99497.34
2023-03-27T07:35:48.126Z,99503.84
2023-03-27T07:38:16.007Z,99516.69
2023-03-27T07:40:44.480Z,99525.28
2023-03-27T07:43:11.521Z,99520.25
2023-03-27T07:45:38.194Z,99525.88
2023-03-27T07:48:15.083Z,99537.28
2023-03-27T07:50:43.001Z,99525.69
2023-03-27T07:53:09.587Z,99537.72
2023-03-27T07:55:58.910Z,99538.59
2023-03-27T07:58:25.941Z,99530.63
2023-03-27T08:00:52.992Z,99541.31
2023-03-27T08:03:21.159Z,99539.47
2023-03-27T08:05:56.587Z,99538.81
2023-03-27T08:08:24.463Z,99541.69
2023-03-27T08:10:51.608Z,99549.56
2023-03-27T08:13:19.737Z,99544.53
2023-03-27T08:15:46.587Z,99556.00
2023-03-27T08:18:13.106Z,99543.16
2023-03-27T08:20:39.975Z,99555.69
2023-03-27T08:23:06.574Z,99549.97
2023-03-27T08:25:33.293Z,99551.59
2023-03-27T08:28:00.535Z,99549.03
2023-03-27T08:30:27.579Z,99549.13
2023-03-27T08:32:54.120Z,99548.00
2023-03-27T08:35:21.328Z,99552.75
2023-03-27T08:37:47.938Z,99556.53
2023-03-27T08:40:21.499Z,99554.06
2023-03-27T08:42:52.541Z,99554.81
2023-03-27T08:45:33.920Z,99563.53
2023-03-27T08:48:09.987Z,99552.41
2023-03-27T08:50:43.984Z,99555.94
2023-03-27T08:53:23.793Z,99556.97
2023-03-27T08:55:50.682Z,99562.09
2023-03-27T08:58:21.581Z,99555.00
2023-03-27T09:01:00.902Z,99555.06
2023-03-27T09:03:54.558Z,99560.00
2023-03-27T09:06:30.388Z,99562.09
2023-03-27T09:09:11.806Z,99560.53
2023-03-27T09:12:19.727Z,99564.13
2023-03-27T09:15:15.385Z,99564.75
2023-03-27T09:17:44.825Z,99561.03
2023-03-27T09:20:20.273Z,99561.41
2023-03-27T09:22:53.551Z,99564.06
2023-03-27T09:25:26.305Z,99571.56
2023-03-27T09:27:53.406Z,99571.19
2023-03-27T09:30:25.689Z,99568.16
2023-03-27T09:32:58.148Z,99563.22
2023-03-27T09:35:24.983Z,99568.72
2023-03-27T09:38:00.144Z,99575.50
2023-03-27T09:40:42.065Z,99577.97
2023-03-27T09:43:16.267Z,99566.56
2023-03-27T09:45:44.933Z,99563.06
2023-03-27T09:48:16.162Z,99556.19
2023-03-27T09:50:47.246Z,99542.41
2023-03-27T09:53:18.817Z,99556.25
2023-03-27T09:56:01.110Z,99553.81
2023-03-27T09:58:35.964Z,99550.38
2023-03-27T10:01:16.652Z,99554.75
2023-03-27T10:03:51.237Z,99557.56
2023-03-27T10:06:48.864Z,99564.22
2023-03-27T10:09:25.213Z,99573.38
2023-03-27T10:12:01.968Z,99569.97
2023-03-27T10:14:29.942Z,99562.53
2023-03-27T10:16:58.018Z,99562.06
2023-03-27T10:19:30.646Z,99565.94
2023-03-27T10:22:02.693Z,99566.88
2023-03-27T10:24:33.620Z,99574.00
2023-03-27T10:27:02.070Z,99582.97
2023-03-27T10:29:40.539Z,99588.81
2023-03-27T10:32:08.137Z,99592.66
2023-03-27T10:34:51.478Z,99596.03
2023-03-27T10:37:32.032Z,99607.22
2023-03-27T10:40:03.486Z,99604.91
2023-03-27T10:42:32.434Z,99612.19
2023-03-27T10:44:59.940Z,99598.19
2023-03-27T10:47:30.272Z,99604.91
2023-03-27T10:50:11.275Z,99602.91
2023-03-27T10:53:17.915Z,99616.53
2023-03-27T10:56:12.490Z,99614.41
2023-03-27T10:59:05.983Z,99612.75
2023-03-27T11:01:40.804Z,99624.47
2023-03-27T11:04:19.308Z,99617.34
2023-03-27T11:06:48.017Z,99613.97
2023-03-27T11:09:26.958Z,99613.78
2023-03-27T11:11:59.098Z,99597.34
2023-03-27T11:14:35.756Z,99592.34
2023-03-27T11:17:07.652Z,99589.34
2023-03-27T11:19:45.256Z,99593.38
2023-03-27T11:22:17.019Z,99606.19
2023-03-27T11:24:54.516Z,99608.53
2023-03-27T11:27:43.214Z,99611.97
2023-03-27T11:30:14.251Z,99637.75
2023-03-27T11:33:11.339Z,99636.03
2023-03-27T11:35:43.695Z,99645.94
2023-03-27T11:38:19.793Z,99675.78
2023-03-27T11:40:49.406Z,99692.38
2023-03-27T11:43:17.917Z,99701.16
2023-03-27T11:46:02.352Z,99702.72
2023-03-27T11:48:56.551Z,99696.75
2023-03-27T11:51:57.828Z,99704.94
2023-03-27T11:54:44.126Z,99708.47
2023-03-27T11:57:26.603Z,99702.09
2023-03-27T12:00:16.121Z,99697.28
2023-03-27T12:03:13.488Z,99686.00
2023-03-27T12:05:53.499Z,99684.44
2023-03-27T12:08:37.149Z,99674.28
2023-03-27T12:11:07.099Z,99669.00
2023-03-27T12:13:58.103Z,99666.38
2023-03-27T12:16:45.754Z,99657.69
2023-03-27T12:19:29.964Z,99653.50
2023-03-27T12:22:28.823Z,99663.63
2023-03-27T12:25:17.549Z,99663.56
2023-03-27T12:28:08.568Z,99659.81
2023-03-27T12:31:19.657Z,99655.91
2023-03-27T12:33:49.946Z,99651.13
2023-03-27T12:36:22.338Z,99666.28
2023-03-27T12:38:48.990Z,99674.44
2023-03-27T12:41:30.381Z,99682.63
2023-03-27T12:44:04.443Z,99694.22
2023-03-27T12:46:38.407Z,99708.56
2023-03-27T12:49:07.960Z,99714.38
2023-03-27T12:51:47.676Z,99720.88
2023-03-27T12:54:34.566Z,99729.91
2023-03-27T12:57:19.200Z,99733.16
2023-03-27T12:59:48.763Z,99754.78
2023-03-27T13:02:19.562Z,99760.88
2023-03-27T13:05:31.020Z,99771.88
2023-03-27T13:08:13.310Z,99786.84
2023-03-27T13:10:56.715Z,99788.63
2023-03-27T13:13:41.075Z,99795.16
2023-03-27T13:16:28.673Z,99774.97
2023-03-27T13:19:27.501Z,99756.91
2023-03-27T13:22:15.017Z,99751.41
2023-03-27T13:25:07.639Z,99742.53
2023-03-27T13:27:52.701Z,99742.75
2023-03-27T13:30:42.996Z,99732.34
2023-03-27T13:33:31.244Z,99734.72
2023-03-27T13:35:58.132Z,99721.19
2023-03-27T13:38:52.869Z,99727.03
2023-03-27T13:41:44.309Z,99718.19
2023-03-27T13:44:32.949Z,99715.88
2023-03-27T13:47:33.462Z,99714.00
2023-03-27T13:50:56.575Z,99709.91
2023-03-27T13:53:32.349Z,99720.72
2023-03-27T13:56:33.223Z,99717.84
2023-03-27T13:59:21.515Z,99706.91
2023-03-27T14:02:30.687Z,99701.59
2023-03-27T14:05:19.198Z,99693.97
2023-03-27T14:08:07.676Z,99696.56
2023-03-27T14:10:55.671Z,99704.63
2023-03-27T14:13:52.952Z,99716.34
2023-03-27T14:16:28.630Z,99733.44
2023-03-27T14:19:20.936Z,99749.91
2023-03-27T14:22:07.825Z,99748.03
2023-03-27T14:24:47.135Z,99742.00
2023-03-27T14:27:21.057Z,99760.88
2023-03-27T14:29:49.559Z,99768.38
2023-03-27T14:32:18.016Z,99764.66
2023-03-27T14:34:54.317Z,99765.34
2023-03-27T14:37:29.807Z,99755.84
2023-03-27T14:39:57.406Z,99772.34
2023-03-27T14:42:32.000Z,99756.78
2023-03-27T14:45:20.835Z,99755.63
2023-03-27T14:47:55.550Z,99750.13
2023-03-27T14:50:23.340Z,99754.34
2023-03-27T14:52:54.718Z,99750.75
2023-03-27T14:55:24.784Z,99755.41
2023-03-27T14:57:54.312Z,99747.06
2023-03-27T15:00:24.473Z,99741.09
2023-03-27T15:02:54.821Z,99741.94
2023-03-27T15:05:22.943Z,99741.09
2023-03-27T15:07:50.042Z,99751.81
2023-03-27T15:10:26.426Z,99745.19
2023-03-27T15:12:55.690Z,99732.94
2023-03-27T15:15:22.151Z,99725.75
2023-03-27T15:17:50.661Z,99729.00
2023-03-27T15:20:22.545Z,99744.59
2023-03-27T15:22:54.901Z,99743.91
2023-03-27T15:25:46.338Z,99781.22
2023-03-27T15:28:27.754Z,99814.34
2023-03-27T15:30:58.144Z,99825.28
2023-03-27T15:33:34.748Z,99837.50
2023-03-27T15:36:06.391Z,99839.03
2023-03-27T15:38:36.528Z,99843.31
2023-03-27T15:41:09.121Z,99839.78
2023-03-27T15:43:36.376Z,99833.84
2023-03-27T15:46:17.643Z,99832.66
2023-03-27T15:48:47.713Z,99832.47
2023-03-27T15:51:20.129Z,99830.06
2023-03-27T15:53:49.557Z,99829.13
2023-03-27T15:56:20.213Z,99834.00
2023-03-27T15:58:54.042Z,99827.44
2023-03-27T16:01:26.146Z,99837.41
2023-03-27T16:03:53.775Z,99834.94
2023-03-27T16:06:33.943Z,99836.34
2023-03-27T16:09:03.019Z,99828.38
2023-03-27T16:11:38.011Z,99828.75
2023-03-27T16:14:04.707Z,99823.84
2023-03-27T16:16:34.036Z,99828.00
2023-03-27T16:19:13.531Z,99826.75
2023-03-27T16:21:55.483Z,99824.28
2023-03-27T16:24:21.932Z,99828.00
2023-03-27T16:26:50.233Z,99825.34
2023-03-27T16:29:18.150Z,99825.91
2023-03-27T16:31:45.131Z,99826.00
2023-03-27T16:34:12.622Z,99821.81
2023-03-27T16:36:49.777Z,99821.94
2023-03-27T16:39:16.149Z,99833.63
2023-03-27T16:41:45.618Z,99832.66
2023-03-27T16:44:12.055Z,99846.97
2023-03-27T16:46:38.924Z,99851.44
2023-03-27T16:49:05.831Z,99846.47
2023-03-27T16:51:32.697Z,99853.69
2023-03-27T16:53:59.229Z,99853.59
2023-03-27T16:56:25.819Z,99853.44
2023-03-27T16:58:52.255Z,99854.03
2023-03-27T17:01:18.773Z,99859.00
2023-03-27T17:03:45.484Z,99855.59
2023-03-27T17:06:12.758Z,99864.06
2023-03-27T17:08:39.295Z,99880.75
2023-03-27T17:11:09.939Z,99896.56
2023-03-27T17:13:37.320Z,99891.66
2023-03-27T17:16:05.246Z,99901.97
2023-03-27T17:18:31.820Z,99906.78
2023-03-27T17:20:58.791Z,99901.28
2023-03-27T17:23:25.777Z,99903.25
2023-03-27T17:25:52.224Z,99907.88
2023-03-27T17:28:18.897Z,99913.44
2023-03-27T17:30:56.357Z,99909.34
2023-03-27T17:33:28.327Z,99909.50
2023-03-27T17:35:57.225Z,99918.81
2023-03-27T17:38:24.353Z,99920.03
2023-03-27T17:40:51.718Z,99922.75
2023-03-27T17:43:18.420Z,99931.38
2023-03-27T17:45:44.921Z,99931.78
2023-03-27T17:48:11.989Z,99935.31
2023-03-27T17:50:39.714Z,99943.72
2023-03-27T17:53:06.842Z,99936.97
2023-03-27T17:55:36.228Z,99948.56
2023-03-27T17:58:09.377Z,99955.19
2023-03-27T18:00:38.306Z,99959.25
2023-03-27T18:03:06.221Z,99956.78
2023-03-27T18:05:37.874Z,99963.94
2023-03-27T18:08:05.336Z,99963.16
2023-03-27T18:10:35.240Z,99966.78
2023-03-27T18:13:02.492Z,99971.38
2023-03-27T18:15:29.417Z,99972.06
2023-03-27T18:17:55.909Z,99973.69
2023-03-27T18:20:22.580Z,99975.34
2023-03-27T18:22:49.079Z,99966.59
2023-03-27T18:25:16.285Z,99974.25
2023-03-27T18:27:44.648Z,99970.97
2023-03-27T18:30:14.829Z,99974.47
2023-03-27T18:32:44.619Z,99993.56
2023-03-27T18:35:14.813Z,99992.94
2023-03-27T18:37:42.610Z,100004.09
2023-03-27T18:40:11.151Z,100006.72
2023-03-27T18:42:40.331Z,100005.69
2023-03-27T18:45:08.539Z,100006.13
2023-03-27T18:47:36.317Z,100008.16
2023-03-27T18:50:05.061Z,100005.84
2023-03-27T18:52:32.339Z,100024.75
2023-03-27T18:54:59.084Z,100018.31
2023-03-27T18:57:26.227Z,100016.19
2023-03-27T18:59:53.534Z,100016.53
2023-03-27T19:02:20.266Z,100019.28
2023-03-27T19:04:51.453Z,100017.03
2023-03-27T19:07:19.770Z,100027.78
2023-03-27T19:09:46.162Z,100027.09
2023-03-27T19:12:12.889Z,100031.72
2023-03-27T19:14:41.141Z,100043.19
2023-03-27T19:17:08.094Z,100035.91
2023-03-27T19:19:34.678Z,100043.84
2023-03-27T19:22:01.240Z,100049.25
2023-03-27T19:24:27.740Z,100060.38
2023-03-27T19:26:54.258Z,100058.81
2023-03-27T19:29:21.009Z,100056.72
2023-03-27T19:31:47.597Z,100058.72
2023-03-27T19:34:14.439Z,100070.53
2023-03-27T19:36:42.006Z,100067.69
2023-03-27T19:39:09.590Z,100058.22
2023-03-27T19:41:36.398Z,100059.22
2023-03-27T19:44:03.454Z,100054.16
2023-03-27T19:46:30.234Z,100059.50
2023-03-27T19:48:56.746Z,100061.50
2023-03-27T19:51:24.038Z,100066.50
2023-03-27T19:53:51.171Z,100070.13
2023-03-27T19:56:17.626Z,100071.97
2023-03-27T19:58:44.180Z,100070.53
2023-03-27T20:01:11.701Z,100070.78
2023-03-27T20:03:39.883Z,100071.69
2023-03-27T20:06:13.461Z,100074.50
2023-03-27T20:08:42.105Z,100073.00
2023-03-27T20:11:08.667Z,100085.63
2023-03-27T20:13:42.382Z,100082.19
2023-03-27T20:16:15.404Z,100080.78
2023-03-27T20:18:42.688Z,100082.78
2023-03-27T20:21:13.412Z,100087.19
2023-03-27T20:23:41.849Z,100085.72
2023-03-27T20:26:09.163Z,100091.16
2023-03-27T20:28:36.543Z,100087.47
2023-03-27T20:31:05.087Z,100100.00
2023-03-27T20:33:32.056Z,100097.44
2023-03-27T20:35:59.075Z,100089.56
2023-03-27T20:38:29.515Z,100101.31
2023-03-27T20:40:56.351Z,100095.47
2023-03-27T20:43:23.334Z,100092.94
2023-03-27T20:45:54.954Z,100086.88
2023-03-27T20:48:22.018Z,100095.03
2023-03-27T20:50:51.360Z,100089.09
2023-03-27T20:53:26.261Z,100095.66
2023-03-27T20:56:03.317Z,100097.44
2023-03-27T20:58:33.623Z,100105.53
2023-03-27T21:01:06.631Z,100098.69
2023-03-27T21:03:39.259Z,100104.19
2023-03-27T21:06:14.746Z,100102.59
2023-03-27T21:08:41.718Z,100099.28
2023-03-27T21:11:08.734Z,100107.41
2023-03-27T21:13:35.369Z,100109.56
2023-03-27T21:16:02.781Z,100115.69
2023-03-27T21:18:29.674Z,100102.50
2023-03-27T21:20:56.271Z,100114.91
2023-03-27T21:23:23.272Z,100108.63
2023-03-27T21:25:51.696Z,100101.75
2023-03-27T21:28:18.337Z,100112.38
2023-03-27T21:30:47.000Z,100112.41
2023-03-27T21:33:16.006Z,100117.66
2023-03-27T21:35:45.944Z,100110.78
2023-03-27T21:38:14.312Z,100117.66
2023-03-27T21:40:41.429Z,100113.16
2023-03-27T21:43:09.565Z,100123.03
2023-03-27T21:45:36.271Z,100127.34
2023-03-27T21:48:03.548Z,100125.09
2023-03-27T21:50:30.203Z,100128.66
2023-03-27T21:52:56.909Z,100138.56
2023-03-27T21:55:23.775Z,100136.00
2023-03-27T21:57:51.766Z,100141.09
2023-03-27T22:00:18.831Z,100133.47
2023-03-27T22:02:45.315Z,100130.00
2023-03-27T22:05:11.843Z,100133.31
2023-03-27T22:07:38.386Z,100133.69
2023-03-27T22:10:06.337Z,100128.31
2023-03-27T22:12:37.137Z,100138.75
2023-03-27T22:15:06.489Z,100129.56
2023-03-27T22:17:35.875Z,100134.00
2023-03-27T22:20:04.231Z,100139.78
2023-03-27T22:22:30.878Z,100144.19
2023-03-27T22:24:57.282Z,100143.69
2023-03-27T22:27:24.202Z,100142.94
2023-03-27T22:29:50.675Z,100138.66
2023-03-27T22:32:17.532Z,100146.72
2023-03-27T22:34:43.935Z,100153.78
2023-03-27T22:37:10.894Z,100154.88
2023-03-27T22:39:37.310Z,100156.13
2023-03-27T22:42:04.365Z,100163.97
2023-03-27T22:44:31.392Z,100163.56
2023-03-27T22:46:59.724Z,100163.56
2023-03-27T22:49:26.940Z,100165.00
2023-03-27T22:51:53.448Z,100169.47
2023-03-27T22:54:20.175Z,100168.69
2023-03-27T22:56:46.943Z,100174.75
2023-03-27T22:59:15.577Z,100173.88
2023-03-27T23:01:42.148Z,100175.88
2023-03-27T23:04:08.701Z,100172.38
2023-03-27T23:06:35.560Z,100180.69
2023-03-27T23:09:02.135Z,100183.28
2023-03-27T23:11:28.597Z,100194.38
2023-03-27T23:13:55.089Z,100194.38
2023-03-27T23:16:21.515Z,100199.44
2023-03-27T23:18:48.279Z,100198.66
2023-03-27T23:21:17.585Z,100195.16
2023-03-27T23:23:45.241Z,100200.34
2023-03-27T23:26:12.698Z,100201.75
2023-03-27T23:28:41.116Z,100214.50
2023-03-27T23:31:13.785Z,100212.75
2023-03-27T23:33:46.207Z,100223.75
2023-03-27T23:36:15.752Z,100226.59
2023-03-27T23:38:43.203Z,100224.75
2023-03-27T23:41:14.082Z,100221.25
2023-03-27T23:43:40.875Z,100230.09
2023-03-27T23:46:11.382Z,100229.34
2023-03-27T23:48:39.893Z,100232.03
2023-03-27T23:51:08.677Z,100232.03
2023-03-27T23:53:35.497Z,100230.41
2023-03-27T23:56:02.694Z,100231.47
2023-03-27T23:58:32.312Z,100236.13
